Time,TemperatureF,DewpointF,PressureIn,WindDirection,WindDirectionDegrees,WindSpeedMPH,WindSpeedGustMPH,Humidity,HourlyPrecipIn,Conditions,Clouds,dailyrainin,SolarRadiationWatts/m^2,SoftwareType,DateUTC
2013-05-16 00:01:00,51.3,39.0,31.37,SSE,153,6.0,8.0,63,0.00,,,0.00,0,weatherlink.com 1.10,2013-05-16 06:01:00,
2013-05-16 00:16:00,51.1,39.0,31.37,SSE,155,4.0,8.0,64,0.00,,,0.00,0,weatherlink.com 1.10,2013-05-16 06:16:00,
2013-05-16 00:32:00,50.9,39.0,31.38,SSE,153,4.0,7.0,65,0.00,,,0.00,0,weatherlink.com 1.10,2013-05-16 06:32:00,
2013-05-16 00:47:00,50.0,39.0,31.38,SSE,156,0.0,5.0,66,0.00,,,0.00,0,weatherlink.com 1.10,2013-05-16 06:47:00,
2013-05-16 01:02:00,48.6,39.0,31.38,SSE,156,1.0,3.0,69,0.00,,,0.00,0,weatherlink.com 1.10,2013-05-16 07:02:00,
2013-05-16 01:17:00,48.3,39.0,31.38,SSE,156,0.0,1.0,70,0.00,,,0.00,0,weatherlink.com 1.10,2013-05-16 07:17:00,
2013-05-16 01:32:00,47.8,39.0,31.38,SSE,156,0.0,0.0,71,0.00,,,0.00,0,weatherlink.com 1.10,2013-05-16 07:32:00,
2013-05-16 01:47:00,47.5,39.0,31.38,SSE,156,0.0,1.0,71,0.00,,,0.00,0,weatherlink.com 1.10,2013-05-16 07:47:00,
2013-05-16 02:02:00,47.6,39.0,31.38,SSE,156,0.0,1.0,72,0.00,,,0.00,0,weatherlink.com 1.10,2013-05-16 08:02:00,
2013-05-16 02:17:00,47.5,39.0,31.37,SSE,156,0.0,0.0,73,0.00,,,0.00,0,weatherlink.com 1.10,2013-05-16 08:17:00,
2013-05-16 02:32:00,47.0,40.0,31.37,SSE,156,0.0,2.0,77,0.00,,,0.00,0,weatherlink.com 1.10,2013-05-16 08:32:00,
2013-05-16 02:47:00,47.1,40.0,31.37,SSE,156,2.0,3.0,76,0.00,,,0.00,0,weatherlink.com 1.10,2013-05-16 08:47:00,
2013-05-16 03:02:00,47.3,40.0,31.37,SSE,156,0.0,0.0,77,0.00,,,0.00,0,weatherlink.com 1.10,2013-05-16 09:02:00,
2013-05-16 03:17:00,47.4,40.0,31.37,SSE,156,0.0,1.0,76,0.00,,,0.00,0,weatherlink.com 1.10,2013-05-16 09:17:00,
2013-05-16 03:32:00,47.3,40.0,31.37,SSE,156,0.0,0.0,77,0.00,,,0.00,0,weatherlink.com 1.10,2013-05-16 09:32:00,
2013-05-16 03:47:00,46.6,39.0,31.37,SSE,156,0.0,2.0,76,0.00,,,0.00,0,weatherlink.com 1.10,2013-05-16 09:47:00,
2013-05-16 04:02:00,45.2,38.0,31.37,SSE,156,0.0,1.0,76,0.00,,,0.00,0,weatherlink.com 1.10,2013-05-16 10:02:00,
2013-05-16 04:17:00,45.2,39.0,31.37,SSE,156,0.0,1.0,80,0.00,,,0.00,0,weatherlink.com 1.10,2013-05-16 10:17:00,
2013-05-16 04:32:00,45.8,40.0,31.37,SSE,155,0.0,2.0,79,0.00,,,0.00,0,weatherlink.com 1.10,2013-05-16 10:32:00,
2013-05-16 04:47:00,46.0,40.0,31.37,SSE,155,0.0,2.0,78,0.00,,,0.00,0,weatherlink.com 1.10,2013-05-16 10:47:00,
2013-05-16 05:02:00,46.1,39.0,31.38,SE,144,2.0,3.0,75,0.00,,,0.00,0,weatherlink.com 1.10,2013-05-16 11:02:00,
2013-05-16 05:17:00,46.7,38.0,31.37,NNE,32,0.0,4.0,73,0.00,,,0.00,0,weatherlink.com 1.10,2013-05-16 11:17:00,
2013-05-16 05:32:00,46.6,38.0,31.38,NNE,32,0.0,2.0,71,0.00,,,0.00,0,weatherlink.com 1.10,2013-05-16 11:32:00,
2013-05-16 05:47:00,46.8,39.0,31.39,SW,227,1.0,4.0,75,0.00,,,0.00,0,weatherlink.com 1.10,2013-05-16 11:47:00,
2013-05-16 06:02:00,46.4,39.0,31.38,SSW,205,2.0,3.0,75,0.00,,,0.00,0,weatherlink.com 1.10,2013-05-16 12:02:00,
2013-05-16 06:17:00,46.4,39.0,31.39,SSW,204,0.0,0.0,74,0.01,,,0.01,0,weatherlink.com 1.10,2013-05-16 12:17:00,
2013-05-16 06:32:00,45.9,39.0,31.39,SSW,204,0.0,1.0,76,0.02,,,0.02,7,weatherlink.com 1.10,2013-05-16 12:32:00,
2013-05-16 06:47:00,45.2,39.0,31.39,South,186,0.0,2.0,80,0.04,,,0.04,12,weatherlink.com 1.10,2013-05-16 12:47:00,
2013-05-16 07:02:00,44.4,40.0,31.39,ENE,70,2.0,3.0,84,0.05,,,0.05,21,weatherlink.com 1.10,2013-05-16 13:02:00,
2013-05-16 07:17:00,43.5,40.0,31.39,ENE,66,0.0,2.0,87,0.05,,,0.06,44,weatherlink.com 1.10,2013-05-16 13:17:00,
2013-05-16 07:32:00,43.3,40.0,31.39,North,5,1.0,5.0,87,0.03,,,0.06,40,weatherlink.com 1.10,2013-05-16 13:32:00,
2013-05-16 07:47:00,43.3,40.0,31.40,NNE,29,0.0,2.0,87,0.02,,,0.06,37,weatherlink.com 1.10,2013-05-16 13:47:00,
2013-05-16 08:02:00,42.8,39.0,31.40,North,350,3.0,6.0,87,0.02,,,0.07,35,weatherlink.com 1.10,2013-05-16 14:02:00,
2013-05-16 08:17:00,42.0,39.0,31.40,North,11,2.0,8.0,89,0.01,,,0.07,33,weatherlink.com 1.10,2013-05-16 14:17:00,
2013-05-16 08:32:00,41.7,39.0,31.41,NE,40,2.0,5.0,90,0.03,,,0.09,47,weatherlink.com 1.10,2013-05-16 14:32:00,
2013-05-16 08:48:00,41.8,39.0,31.41,North,5,2.0,5.0,90,0.05,,,0.11,77,weatherlink.com 1.10,2013-05-16 14:48:00,
2013-05-16 09:03:00,42.3,40.0,31.41,NW,321,3.0,4.0,91,0.04,,,0.11,105,weatherlink.com 1.10,2013-05-16 15:03:00,
2013-05-16 09:18:00,42.7,40.0,31.41,NNW,330,1.0,4.0,91,0.04,,,0.11,77,weatherlink.com 1.10,2013-05-16 15:18:00,
2013-05-16 09:33:00,42.9,41.0,31.42,NNW,330,2.0,3.0,92,0.03,,,0.12,123,weatherlink.com 1.10,2013-05-16 15:33:00,
2013-05-16 09:48:00,43.2,41.0,31.42,North,349,1.0,4.0,91,0.02,,,0.13,91,weatherlink.com 1.10,2013-05-16 15:48:00,
2013-05-16 10:03:00,43.2,41.0,31.42,North,5,3.0,4.0,91,0.03,,,0.14,98,weatherlink.com 1.10,2013-05-16 16:03:00,
2013-05-16 10:18:00,43.5,41.0,31.42,North,5,1.0,6.0,91,0.03,,,0.14,83,weatherlink.com 1.10,2013-05-16 16:18:00,
2013-05-16 10:33:00,43.4,41.0,31.42,NNE,16,2.0,6.0,92,0.03,,,0.15,128,weatherlink.com 1.10,2013-05-16 16:33:00,
2013-05-16 10:48:00,42.9,41.0,31.43,North,355,6.0,9.0,92,0.03,,,0.16,118,weatherlink.com 1.10,2013-05-16 16:48:00,
2013-05-16 11:03:00,42.8,40.0,31.43,NNW,345,4.0,6.0,90,0.02,,,0.16,135,weatherlink.com 1.10,2013-05-16 17:03:00,
2013-05-16 11:18:00,42.9,40.0,31.43,North,360,3.0,7.0,90,0.02,,,0.16,123,weatherlink.com 1.10,2013-05-16 17:18:00,
2013-05-16 11:33:00,42.8,40.0,31.43,North,360,3.0,5.0,91,0.01,,,0.16,135,weatherlink.com 1.10,2013-05-16 17:33:00,
2013-05-16 11:48:00,43.6,41.0,31.43,North,9,0.0,7.0,91,0.00,,,0.16,316,weatherlink.com 1.10,2013-05-16 17:48:00,
2013-05-16 12:03:00,45.6,43.0,31.43,NNW,329,3.0,8.0,90,0.00,,,0.16,610,weatherlink.com 1.10,2013-05-16 18:03:00,
2013-05-16 12:18:00,46.1,43.0,31.42,North,11,3.0,7.0,87,0.00,,,0.16,431,weatherlink.com 1.10,2013-05-16 18:18:00,
2013-05-16 12:33:00,46.9,43.0,31.41,North,360,3.0,7.0,86,0.00,,,0.16,506,weatherlink.com 1.10,2013-05-16 18:33:00,
2013-05-16 12:48:00,47.8,42.0,31.42,North,360,6.0,8.0,79,0.00,,,0.16,520,weatherlink.com 1.10,2013-05-16 18:48:00,
2013-05-16 13:03:00,48.8,42.0,31.41,North,355,1.0,5.0,76,0.00,,,0.16,490,weatherlink.com 1.10,2013-05-16 19:03:00,
2013-05-16 13:18:00,49.8,41.0,31.41,North,355,0.0,6.0,72,0.00,,,0.16,647,weatherlink.com 1.10,2013-05-16 19:18:00,
2013-05-16 13:33:00,50.8,41.0,31.41,NNW,343,1.0,11.0,69,0.00,,,0.16,872,weatherlink.com 1.10,2013-05-16 19:33:00,
2013-05-16 13:48:00,50.7,40.0,31.40,WNW,292,2.0,10.0,68,0.00,,,0.16,476,weatherlink.com 1.10,2013-05-16 19:48:00,
2013-05-16 14:03:00,50.9,41.0,31.40,NW,313,1.0,6.0,70,0.00,,,0.16,392,weatherlink.com 1.10,2013-05-16 20:03:00,
2013-05-16 14:18:00,51.0,42.0,31.40,North,360,2.0,7.0,71,0.00,,,0.16,441,weatherlink.com 1.10,2013-05-16 20:18:00,
2013-05-16 14:33:00,51.2,40.0,31.39,NNW,344,5.0,7.0,66,0.00,,,0.16,434,weatherlink.com 1.10,2013-05-16 20:33:00,
2013-05-16 14:48:00,51.5,40.0,31.39,WNW,298,0.0,5.0,64,0.00,,,0.16,450,weatherlink.com 1.10,2013-05-16 20:48:00,
2013-05-16 15:03:00,52.3,41.0,31.39,WNW,298,0.0,6.0,66,0.00,,,0.16,445,weatherlink.com 1.10,2013-05-16 21:03:00,
2013-05-16 15:18:00,53.0,42.0,31.39,West,275,2.0,7.0,66,0.01,,,0.17,436,weatherlink.com 1.10,2013-05-16 21:18:00,
2013-05-16 15:33:00,52.4,40.0,31.38,NW,318,1.0,5.0,63,0.01,,,0.17,427,weatherlink.com 1.10,2013-05-16 21:33:00,
2013-05-16 15:48:00,52.8,39.0,31.38,NNW,343,0.0,4.0,61,0.01,,,0.17,381,weatherlink.com 1.10,2013-05-16 21:48:00,
2013-05-16 16:03:00,53.5,39.0,31.37,NW,325,0.0,5.0,58,0.01,,,0.17,445,weatherlink.com 1.10,2013-05-16 22:03:00,
2013-05-16 16:18:00,53.7,40.0,31.37,NW,306,7.0,10.0,60,0.00,,,0.17,434,weatherlink.com 1.10,2013-05-16 22:18:00,
2013-05-16 16:33:00,54.3,40.0,31.36,NW,320,0.0,5.0,58,0.00,,,0.17,592,weatherlink.com 1.10,2013-05-16 22:33:00,
2013-05-16 16:48:00,54.7,39.0,31.36,NNW,329,0.0,10.0,56,0.00,,,0.17,538,weatherlink.com 1.10,2013-05-16 22:48:00,
2013-05-16 17:03:00,55.1,39.0,31.35,North,350,0.0,6.0,56,0.00,,,0.17,436,weatherlink.com 1.10,2013-05-16 23:03:00,
2013-05-16 17:18:00,55.4,39.0,31.35,NW,308,2.0,7.0,55,0.00,,,0.17,436,weatherlink.com 1.10,2013-05-16 23:18:00,
2013-05-16 17:33:00,55.7,40.0,31.35,North,9,2.0,7.0,56,0.00,,,0.17,425,weatherlink.com 1.10,2013-05-16 23:33:00,
2013-05-16 17:48:00,55.6,38.0,31.34,NW,311,1.0,9.0,51,0.00,,,0.17,410,weatherlink.com 1.10,2013-05-16 23:48:00,
2013-05-16 18:04:00,56.4,40.0,31.34,NNW,335,6.0,9.0,54,0.00,,,0.17,515,weatherlink.com 1.10,2013-05-17 00:04:00,
2013-05-16 18:19:00,56.5,39.0,31.34,NW,317,4.0,10.0,52,0.00,,,0.17,471,weatherlink.com 1.10,2013-05-17 00:19:00,
2013-05-16 18:34:00,56.7,39.0,31.34,WNW,303,7.0,10.0,52,0.00,,,0.17,392,weatherlink.com 1.10,2013-05-17 00:34:00,
2013-05-16 18:49:00,56.4,38.0,31.34,NNW,338,4.0,9.0,51,0.00,,,0.17,350,weatherlink.com 1.10,2013-05-17 00:49:00,
2013-05-16 19:04:00,56.5,39.0,31.33,NW,317,3.0,8.0,53,0.00,,,0.17,236,weatherlink.com 1.10,2013-05-17 01:04:00,
2013-05-16 19:19:00,56.3,38.0,31.33,NW,308,4.0,6.0,51,0.00,,,0.17,163,weatherlink.com 1.10,2013-05-17 01:19:00,
2013-05-16 19:34:00,54.8,39.0,31.34,NW,316,0.0,4.0,56,0.00,,,0.17,151,weatherlink.com 1.10,2013-05-17 01:34:00,
2013-05-16 19:49:00,54.3,37.0,31.34,NW,317,0.0,4.0,52,0.00,,,0.17,77,weatherlink.com 1.10,2013-05-17 01:49:00,
2013-05-16 20:04:00,54.3,38.0,31.34,NW,317,0.0,0.0,54,0.00,,,0.17,62,weatherlink.com 1.10,2013-05-17 02:04:00,
2013-05-16 20:19:00,53.9,37.0,31.34,NW,317,0.0,1.0,53,0.00,,,0.17,47,weatherlink.com 1.10,2013-05-17 02:19:00,
2013-05-16 20:34:00,53.2,38.0,31.34,NW,317,0.0,2.0,56,0.00,,,0.17,28,weatherlink.com 1.10,2013-05-17 02:34:00,
2013-05-16 20:49:00,52.1,37.0,31.34,NW,321,0.0,1.0,57,0.00,,,0.17,14,weatherlink.com 1.10,2013-05-17 02:49:00,
2013-05-16 21:04:00,51.8,36.0,31.35,NW,321,0.0,2.0,56,0.00,,,0.17,5,weatherlink.com 1.10,2013-05-17 03:04:00,
2013-05-16 21:19:00,51.8,36.0,31.35,ENE,65,1.0,3.0,56,0.00,,,0.17,0,weatherlink.com 1.10,2013-05-17 03:19:00,
2013-05-16 21:34:00,51.9,36.0,31.35,ENE,65,0.0,2.0,54,0.00,,,0.17,0,weatherlink.com 1.10,2013-05-17 03:34:00,
2013-05-16 21:49:00,51.6,35.0,31.36,ENE,65,2.0,2.0,54,0.00,,,0.17,0,weatherlink.com 1.10,2013-05-17 03:49:00,
2013-05-16 22:04:00,51.4,36.0,31.37,NE,53,0.0,3.0,55,0.00,,,0.17,0,weatherlink.com 1.10,2013-05-17 04:04:00,
2013-05-16 22:19:00,51.2,36.0,31.37,NNW,329,3.0,4.0,56,0.00,,,0.17,0,weatherlink.com 1.10,2013-05-17 04:19:00,
2013-05-16 22:34:00,50.2,36.0,31.37,North,355,1.0,4.0,59,0.00,,,0.17,0,weatherlink.com 1.10,2013-05-17 04:34:00,
2013-05-16 22:49:00,49.1,37.0,31.37,North,355,0.0,4.0,63,0.00,,,0.17,0,weatherlink.com 1.10,2013-05-17 04:49:00,
2013-05-16 23:04:00,48.7,36.0,31.37,North,355,0.0,1.0,63,0.00,,,0.17,0,weatherlink.com 1.10,2013-05-17 05:04:00,
2013-05-16 23:19:00,49.2,35.0,31.37,North,355,0.0,2.0,59,0.00,,,0.17,0,weatherlink.com 1.10,2013-05-17 05:19:00,
2013-05-16 23:34:00,49.6,36.0,31.37,North,355,0.0,3.0,60,0.00,,,0.17,0,weatherlink.com 1.10,2013-05-17 05:34:00,
2013-05-16 23:49:00,49.4,37.0,31.37,North,355,0.0,2.0,62,0.00,,,0.17,0,weatherlink.com 1.10,2013-05-17 05:49:00,